Time;durP1;ratioP1;P1;durP2;ratioP2;P2;SDS_P1;SDS_P2;PMS_P1;PMS_P2;Temp;Humidity;BMP_temperature;BMP_pressure;BME280_temperature;BME280_humidity;BME280_pressure;Samples;Min_cycle;Max_cycle;Signal;HPM_P1;HPM_P2
2022/07/08 00:02:15;;;;;;;5.20;2.20;;;;;18.20;97503.40;;;;110347;1255;41854;-66
2022/07/08 00:04:46;;;;;;;4.60;2.10;;;;;18.10;97501.20;;;;110473;1255;41638;-66
2022/07/08 00:07:16;;;;;;;5.50;2.10;;;;;18.10;97508.00;;;;110487;1256;41257;-66
2022/07/08 00:09:46;;;;;;;6.80;2.10;;;;;18.00;97516.20;;;;110510;1253;41981;-66
2022/07/08 00:12:16;;;;;;;;;;;;;18.00;97518.00;;;;110523;1253;41180;-66
2022/07/08 00:14:47;;;;;;;4.30;2.00;;;;;17.90;97523.20;;;;110494;1253;42032;-67
2022/07/08 00:17:18;;;;;;;3.90;2.00;;;;;17.80;97526.60;;;;110452;1253;41267;-67
2022/07/08 00:19:49;;;;;;;4.50;2.30;;;;;17.80;97525.40;;;;110464;1254;41144;-67
2022/07/08 00:22:21;;;;;;;5.00;2.30;;;;;17.70;97526.20;;;;110288;1255;41750;-66
2022/07/08 00:24:51;;;;;;;;;;;;;17.70;97523.20;;;;110504;1253;41402;-66
2022/07/08 00:27:22;;;;;;;;;;;;;17.60;97525.60;;;;110444;1255;41963;-67
2022/07/08 00:29:54;;;;;;;5.70;2.60;;;;;17.50;97520.00;;;;110511;1253;41934;-66
2022/07/08 00:32:24;;;;;;;5.40;2.70;;;;;17.50;97512.40;;;;110329;1256;41147;-68
2022/07/08 00:34:55;;;;;;;5.80;2.70;;;;;17.40;97507.80;;;;110450;1255;41264;-67
2022/07/08 00:37:25;;;;;;;5.00;2.10;;;;;17.40;97509.80;;;;110385;1255;41151;-66
2022/07/08 00:39:57;;;;;;;3.80;1.90;;;;;17.30;97510.80;;;;110430;1256;41277;-67
2022/07/08 00:42:27;;;;;;;5.30;2.20;;;;;17.30;97514.80;;;;110480;1253;41144;-66
2022/07/08 00:44:57;;;;;;;4.80;2.20;;;;;17.20;97513.80;;;;110519;1253;41158;-66
2022/07/08 00:47:27;;;;;;;5.00;2.30;;;;;17.20;97516.20;;;;110324;1255;41978;-67
2022/07/08 00:49:57;;;;;;;6.60;2.70;;;;;17.12;97516.20;;;;110062;1255;41154;-66
2022/07/08 00:52:28;;;;;;;6.60;2.90;;;;;17.06;97524.00;;;;110333;1254;41184;-67
2022/07/08 00:54:59;;;;;;;7.80;3.10;;;;;17.00;97525.60;;;;110534;1253;41906;-66
2022/07/08 00:57:29;;;;;;;9.20;3.00;;;;;16.90;97521.00;;;;110466;1256;41720;-67
2022/07/08 01:00:03;;;;;;;6.10;2.70;;;;;16.80;97517.40;;;;110512;1253;41260;-66
2022/07/08 01:02:33;;;;;;;;;;;;;16.70;97517.60;;;;110508;1253;41434;-66
2022/07/08 01:05:04;;;;;;;7.70;2.90;;;;;16.64;97516.20;;;;110419;1255;41429;-67
2022/07/08 01:07:34;;;;;;;8.30;3.30;;;;;16.60;97511.20;;;;110418;1254;42380;-66
2022/07/08 01:10:05;;;;;;;;;;;;;16.60;97509.80;;;;110375;1255;41282;-67
2022/07/08 01:12:36;;;;;;;8.00;3.40;;;;;16.60;97511.60;;;;110522;1255;41183;-68
2022/07/08 01:15:08;;;;;;;7.10;2.90;;;;;16.60;97515.40;;;;110523;1253;41162;-68
2022/07/08 01:17:48;;;;;;;7.80;2.80;;;;;16.60;97515.00;;;;110519;1253;41270;-68
2022/07/08 01:20:18;;;;;;;;;;;;;16.50;97515.00;;;;110444;1255;41149;-67
2022/07/08 01:22:48;;;;;;;6.50;2.80;;;;;16.46;97520.60;;;;110299;1256;41174;-67
2022/07/08 01:25:18;;;;;;;12.00;3.20;;;;;16.40;97519.00;;;;110346;1253;41267;-68
2022/07/08 01:27:48;;;;;;;7.50;2.90;;;;;16.40;97518.20;;;;110346;1253;41160;-67
2022/07/08 01:30:18;;;;;;;7.70;3.20;;;;;16.40;97516.20;;;;110254;1255;41139;-67
2022/07/08 01:32:49;;;;;;;8.80;3.30;;;;;16.30;97522.80;;;;110409;1255;41158;-68
2022/07/08 01:35:20;;;;;;;9.40;3.60;;;;;16.30;97525.40;;;;110471;1253;41155;-67
2022/07/08 01:37:51;;;;;;;8.40;3.20;;;;;16.30;97521.20;;;;110318;1255;42302;-66
2022/07/08 01:40:21;;;;;;;10.80;3.50;;;;;16.30;97522.80;;;;110295;1255;42001;-67
2022/07/08 01:42:51;;;;;;;8.40;3.00;;;;;16.26;97525.60;;;;110443;1255;42383;-67
2022/07/08 01:45:22;;;;;;;6.50;2.40;;;;;16.28;97520.80;;;;110351;1256;41278;-68
2022/07/08 01:47:52;;;;;;;7.80;3.70;;;;;16.26;97528.00;;;;110507;1255;41136;-67
2022/07/08 01:50:23;;;;;;;9.90;3.70;;;;;16.30;97525.80;;;;110314;1256;41956;-68
2022/07/08 01:52:53;;;;;;;10.10;3.60;;;;;16.26;97525.60;;;;110484;1255;41837;-67
2022/07/08 01:55:24;;;;;;;7.90;3.30;;;;;16.30;97525.40;;;;110507;1253;41187;-67
2022/07/08 01:57:54;;;;;;;7.90;3.30;;;;;16.30;97526.00;;;;110510;1253;41296;-67
2022/07/08 02:00:26;;;;;;;7.60;3.40;;;;;16.30;97524.40;;;;110470;1255;41383;-66
2022/07/08 02:02:57;;;;;;;8.30;3.60;;;;;16.22;97526.60;;;;110537;1255;41152;-67
2022/07/08 02:05:27;;;;;;;;;;;;;16.20;97527.80;;;;110509;1254;41155;-66
2022/07/08 02:07:57;;;;;;;7.70;3.00;;;;;16.06;97523.00;;;;110516;1254;42460;-67
2022/07/08 02:10:29;;;;;;;7.50;3.20;;;;;16.00;97523.20;;;;110526;1254;41274;-67
2022/07/08 02:13:00;;;;;;;6.70;3.00;;;;;15.88;97524.80;;;;110558;1253;41158;-66
2022/07/08 02:15:32;;;;;;;10.40;3.30;;;;;15.90;97527.00;;;;110532;1253;41267;-67
2022/07/08 02:18:02;;;;;;;6.80;3.30;;;;;15.80;97528.00;;;;110528;1254;41714;-68
2022/07/08 02:20:34;;;;;;;10.70;3.30;;;;;15.70;97527.60;;;;110529;1254;41142;-67
2022/07/08 02:23:04;;;;;;;;;;;;;15.60;97522.00;;;;110628;1252;41289;-66
2022/07/08 02:25:35;;;;;;;7.50;3.50;;;;;15.50;97523.40;;;;110551;1253;41806;-66
2022/07/08 02:28:06;;;;;;;8.60;3.00;;;;;15.44;97526.80;;;;110523;1254;41669;-68
2022/07/08 02:30:37;;;;;;;7.10;2.90;;;;;15.44;97522.40;;;;110527;1255;41634;-68
2022/07/08 02:33:07;;;;;;;6.30;2.70;;;;;15.42;97527.80;;;;110527;1252;41157;-67
2022/07/08 02:35:37;;;;;;;6.40;2.50;;;;;15.42;97527.20;;;;110546;1253;41187;-67
2022/07/08 02:38:07;;;;;;;6.30;2.60;;;;;15.40;97526.40;;;;110476;1255;41513;-66
2022/07/08 02:40:37;;;;;;;5.20;2.40;;;;;15.40;97523.40;;;;110437;1255;41395;-66
2022/07/08 02:43:10;;;;;;;;;;;;;15.40;97528.60;;;;110473;1255;41135;-67
2022/07/08 02:45:40;;;;;;;7.60;2.90;;;;;15.40;97530.20;;;;110383;1255;41385;-67
2022/07/08 02:48:11;;;;;;;8.80;3.40;;;;;15.40;97529.20;;;;110500;1253;42555;-65
2022/07/08 02:50:41;;;;;;;5.40;2.40;;;;;15.40;97527.60;;;;110516;1253;41162;-67
2022/07/08 02:53:12;;;;;;;6.80;2.60;;;;;15.32;97531.20;;;;110409;1256;41138;-67
2022/07/08 02:55:42;;;;;;;5.30;2.20;;;;;15.30;97536.20;;;;110510;1253;42135;-67
2022/07/08 02:58:12;;;;;;;4.60;2.20;;;;;15.30;97537.80;;;;110469;1254;41171;-67
2022/07/08 03:00:43;;;;;;;6.50;2.60;;;;;15.30;97540.20;;;;110539;1254;41145;-67
2022/07/08 03:03:14;;;;;;;6.80;2.70;;;;;15.30;97542.40;;;;110464;1255;41483;-66
2022/07/08 03:05:44;;;;;;;7.50;3.00;;;;;15.30;97544.60;;;;110550;1253;41264;-67
2022/07/08 03:08:14;;;;;;;7.90;3.40;;;;;15.20;97544.80;;;;110517;1253;41266;-67
2022/07/08 03:10:45;;;;;;;7.90;3.30;;;;;15.20;97550.20;;;;110580;1252;41164;-67
2022/07/08 03:13:16;;;;;;;6.90;3.10;;;;;15.20;97552.00;;;;110413;1256;41601;-67
2022/07/08 03:15:46;;;;;;;;;;;;;15.20;97554.00;;;;110582;1254;41146;-67
2022/07/08 03:18:16;;;;;;;7.00;2.60;;;;;15.20;97556.40;;;;110641;1253;41158;-66
2022/07/08 03:20:47;;;;;;;6.70;2.80;;;;;15.30;97557.80;;;;110516;1254;41148;-66
2022/07/08 03:23:18;;;;;;;6.50;2.50;;;;;15.30;97557.80;;;;110435;1254;41257;-66
2022/07/08 03:25:48;;;;;;;6.60;2.60;;;;;15.40;97560.00;;;;110526;1253;42547;-66
2022/07/08 03:28:18;;;;;;;8.10;2.70;;;;;15.46;97556.60;;;;110529;1253;41245;-66
2022/07/08 03:30:48;;;;;;;7.10;3.10;;;;;15.52;97559.20;;;;110538;1254;42109;-67
2022/07/08 03:33:20;;;;;;;7.70;2.80;;;;;15.60;97558.00;;;;110529;1253;41168;-67
2022/07/08 03:35:49;;;;;;;5.70;2.50;;;;;15.70;97555.40;;;;110413;1255;42282;-68
2022/07/08 03:38:20;;;;;;;7.10;2.60;;;;;15.80;97559.00;;;;110302;1254;41187;-66
2022/07/08 03:43:39;;;;;;;7.40;3.30;;;;;16.10;97564.00;;;;110566;1253;41152;-68
2022/07/08 03:46:09;;;;;;;7.60;3.50;;;;;16.10;97560.40;;;;110419;1255;41623;-69
2022/07/08 03:48:40;;;;;;;7.70;3.30;;;;;16.10;97558.00;;;;110555;1254;41279;-66
2022/07/08 03:51:10;;;;;;;8.60;3.30;;;;;16.04;97560.00;;;;110360;1255;41170;-66
2022/07/08 03:53:39;;;;;;;7.50;3.30;;;;;16.10;97557.20;;;;110507;1254;42388;-67
2022/07/08 03:56:09;;;;;;;8.60;3.50;;;;;16.10;97553.00;;;;110401;1256;41728;-65
2022/07/08 03:58:39;;;;;;;7.40;3.30;;;;;16.10;97556.80;;;;110397;1256;41139;-65
2022/07/08 04:01:09;;;;;;;7.70;3.10;;;;;16.16;97558.20;;;;110312;1256;41693;-65
2022/07/08 04:03:39;;;;;;;7.10;3.20;;;;;16.20;97553.80;;;;110450;1256;41160;-66
2022/07/08 04:06:09;;;;;;;8.30;3.10;;;;;16.30;97555.40;;;;110540;1254;41154;-65
2022/07/08 04:08:39;;;;;;;8.80;3.20;;;;;16.40;97557.60;;;;110486;1253;41144;-64
2022/07/08 04:11:09;;;;;;;;;;;;;16.48;97558.20;;;;110337;1256;41234;-65
2022/07/08 04:13:40;;;;;;;8.00;3.60;;;;;16.50;97550.80;;;;110521;1255;41152;-66
2022/07/08 04:16:13;;;;;;;6.70;3.10;;;;;16.50;97552.20;;;;110513;1255;41276;-63
2022/07/08 04:18:45;;;;;;;7.80;3.20;;;;;16.50;97555.00;;;;110271;1256;41301;-65
2022/07/08 04:21:17;;;;;;;7.20;3.30;;;;;16.62;97557.00;;;;110303;1256;41504;-63
2022/07/08 04:23:48;;;;;;;9.60;3.50;;;;;16.80;97554.60;;;;110208;1256;41183;-65
2022/07/08 04:26:18;;;;;;;9.40;3.60;;;;;16.90;97558.60;;;;110417;1255;41150;-65
2022/07/08 04:28:48;;;;;;;5.80;2.80;;;;;17.20;97557.60;;;;110395;1256;41161;-64
2022/07/08 04:31:17;;;;;;;8.30;3.70;;;;;17.66;97551.80;;;;110414;1254;42532;-65
2022/07/08 04:33:47;;;;;;;6.80;3.10;;;;;18.16;97554.20;;;;110314;1256;41367;-64
2022/07/08 04:36:17;;;;;;;6.10;2.70;;;;;18.70;97560.20;;;;110364;1255;41146;-65
2022/07/08 04:38:46;;;;;;;5.90;2.60;;;;;19.30;97556.40;;;;110462;1253;41733;-65
2022/07/08 04:41:16;;;;;;;5.60;2.50;;;;;19.90;97548.00;;;;110446;1253;41596;-65
2022/07/08 04:43:46;;;;;;;6.70;2.80;;;;;20.50;97543.40;;;;110366;1255;41414;-65
2022/07/08 04:46:16;;;;;;;5.90;2.70;;;;;21.08;97541.40;;;;110211;1255;41375;-66
2022/07/08 04:48:45;;;;;;;6.50;2.70;;;;;21.58;97540.40;;;;110414;1254;41607;-65
2022/07/08 04:51:15;;;;;;;7.40;2.60;;;;;22.00;97548.40;;;;110433;1253;41246;-65
2022/07/08 04:53:45;;;;;;;5.70;2.30;;;;;22.40;97542.80;;;;110375;1256;41538;-67
2022/07/08 04:56:14;;;;;;;4.60;2.30;;;;;22.80;97546.00;;;;110411;1253;41270;-67
2022/07/08 04:58:44;;;;;;;4.50;2.10;;;;;23.30;97544.60;;;;110554;1253;42380;-68
2022/07/08 05:01:14;;;;;;;7.10;2.40;;;;;23.60;97535.00;;;;110499;1255;41912;-68
2022/07/08 05:03:43;;;;;;;4.10;2.10;;;;;24.00;97528.80;;;;110492;1253;41241;-68
2022/07/08 05:06:13;;;;;;;6.20;2.20;;;;;24.40;97522.60;;;;110546;1253;42167;-68
2022/07/08 05:08:43;;;;;;;5.70;2.40;;;;;24.70;97525.20;;;;110527;1253;41146;-69
2022/07/08 05:11:13;;;;;;;5.20;2.30;;;;;25.00;97518.60;;;;110527;1254;41143;-67
2022/07/08 05:13:43;;;;;;;5.20;2.20;;;;;25.10;97509.40;;;;110539;1253;40924;-69
2022/07/08 05:16:13;;;;;;;4.80;2.10;;;;;25.32;97507.40;;;;110530;1256;41159;-69
2022/07/08 05:18:42;;;;;;;4.40;2.20;;;;;25.40;97499.80;;;;110508;1255;41956;-68
2022/07/08 05:21:11;;;;;;;3.80;1.90;;;;;25.60;97511.60;;;;110466;1254;41268;-69
2022/07/08 05:23:41;;;;;;;4.10;1.90;;;;;25.66;97510.60;;;;110385;1256;41147;-68
2022/07/08 05:26:10;;;;;;;3.40;1.70;;;;;25.82;97511.40;;;;110495;1253;41946;-67
2022/07/08 05:28:40;;;;;;;4.60;1.90;;;;;25.88;97505.20;;;;110506;1254;41715;-67
2022/07/08 05:31:10;;;;;;;3.90;1.80;;;;;25.80;97514.40;;;;110461;1256;41948;-68
2022/07/08 05:33:40;;;;;;;2.80;1.60;;;;;25.74;97525.40;;;;110303;1254;41642;-67
2022/07/08 05:36:10;;;;;;;3.10;1.70;;;;;25.26;97537.00;;;;110505;1254;41261;-68
2022/07/08 05:38:39;;;;;;;3.90;1.80;;;;;24.82;97545.60;;;;110439;1255;42093;-69
2022/07/08 05:41:09;;;;;;;3.40;1.90;;;;;24.48;97543.60;;;;110549;1253;40735;-68
2022/07/08 05:43:39;;;;;;;2.80;1.70;;;;;24.20;97542.80;;;;110385;1253;41183;-68
2022/07/08 05:46:08;;;;;;;4.90;1.80;;;;;24.00;97545.20;;;;110432;1254;41165;-69
2022/07/08 05:48:38;;;;;;;2.90;1.60;;;;;24.00;97549.40;;;;110438;1254;42548;-70
2022/07/08 05:51:08;;;;;;;2.60;1.60;;;;;23.90;97547.00;;;;110538;1253;41173;-72
2022/07/08 05:53:40;;;;;;;4.40;2.10;;;;;23.90;97546.80;;;;110338;1256;42224;-68
2022/07/08 05:56:09;;;;;;;2.50;1.50;;;;;23.90;97548.40;;;;110568;1254;41401;-68
2022/07/08 05:58:39;;;;;;;3.90;1.70;;;;;24.00;97542.60;;;;110478;1254;41264;-67
2022/07/08 06:01:08;;;;;;;3.40;1.70;;;;;24.30;97540.00;;;;110423;1255;41898;-68
2022/07/08 06:03:38;;;;;;;5.20;1.80;;;;;24.88;97532.20;;;;110752;1254;41592;-68
2022/07/08 06:06:07;;;;;;;2.80;1.60;;;;;25.76;97533.40;;;;110639;1256;41572;-67
2022/07/08 06:08:36;;;;;;;7.00;2.00;;;;;26.50;97533.40;;;;110631;1253;41526;-68
2022/07/08 06:11:05;;;;;;;4.40;2.00;;;;;27.00;97530.00;;;;110472;1253;41593;-67
2022/07/08 06:13:34;;;;;;;4.10;2.00;;;;;27.40;97533.80;;;;110538;1255;41681;-66
2022/07/08 06:16:06;;;;;;;6.20;1.90;;;;;27.48;97531.00;;;;110562;1253;41290;-67
2022/07/08 06:18:35;;;;;;;3.60;1.70;;;;;28.22;97532.40;;;;110547;1253;41134;-69
2022/07/08 06:21:05;;;;;;;4.00;1.90;;;;;28.98;97528.00;;;;110760;1253;41528;-68
2022/07/08 06:23:37;;;;;;;3.80;1.70;;;;;29.30;97526.40;;;;110675;1253;41648;-70
2022/07/08 06:26:06;;;;;;;3.40;1.60;;;;;29.80;97522.60;;;;110685;1253;42387;-69
2022/07/08 06:28:35;;;;;;;3.40;1.50;;;;;29.98;97519.00;;;;110678;1253;41514;-68
2022/07/08 06:31:04;;;;;;;4.00;1.60;;;;;30.10;97519.60;;;;110694;1253;41653;-70
2022/07/08 06:33:33;;;;;;;3.00;1.60;;;;;30.56;97514.20;;;;110640;1255;41986;-68
2022/07/08 06:36:02;;;;;;;3.20;1.60;;;;;30.90;97516.60;;;;110285;1253;41302;-68
2022/07/08 06:38:32;;;;;;;6.10;1.60;;;;;31.06;97516.60;;;;110549;1253;41259;-69
2022/07/08 06:41:01;;;;;;;3.50;1.70;;;;;31.18;97515.20;;;;110640;1253;41642;-67
2022/07/08 06:43:30;;;;;;;5.10;1.70;;;;;31.20;97514.80;;;;110647;1253;41200;-67
2022/07/08 06:46:00;;;;;;;3.80;1.60;;;;;31.50;97514.40;;;;110818;1253;41695;-69
2022/07/08 06:48:29;;;;;;;3.20;1.50;;;;;31.32;97515.60;;;;110658;1254;41262;-69
2022/07/08 06:50:59;;;;;;;2.30;1.50;;;;;31.52;97515.20;;;;110591;1253;41201;-68
2022/07/08 06:54:34;;;;;;;2.00;1.30;;;;;32.56;97515.40;;;;110512;1255;41210;-67
2022/07/08 06:56:18;;;;;;;3.50;1.70;;;;;33.62;97508.00;;;;110544;1253;41155;-68
2022/07/08 06:58:48;;;;;;;2.60;1.40;;;;;33.42;97509.40;;;;110524;1254;41156;-67
2022/07/08 07:01:17;;;;;;;3.40;1.40;;;;;33.08;97511.40;;;;110565;1253;41325;-67
2022/07/08 07:03:47;;;;;;;4.30;1.60;;;;;33.02;97513.60;;;;110645;1253;41266;-69
2022/07/08 07:06:16;;;;;;;4.60;1.70;;;;;33.18;97512.20;;;;110565;1253;41257;-69
2022/07/08 07:08:47;;;;;;;4.00;1.60;;;;;33.30;97510.40;;;;110530;1254;41157;-69
2022/07/08 07:11:16;;;;;;;2.60;1.50;;;;;32.22;97517.60;;;;110579;1253;41154;-70
2022/07/08 07:13:47;;;;;;;5.30;1.80;;;;;31.52;97515.80;;;;110426;1256;41166;-68
2022/07/08 07:16:16;;;;;;;6.70;1.70;;;;;29.54;97527.20;;;;110561;1251;42255;-68
2022/07/08 07:18:46;;;;;;;3.00;1.60;;;;;28.24;97543.20;;;;110528;1253;41151;-69
2022/07/08 07:21:15;;;;;;;3.50;1.60;;;;;27.74;97545.80;;;;110699;1253;41332;-70
2022/07/08 07:23:44;;;;;;;4.30;1.60;;;;;27.60;97555.80;;;;110511;1253;41200;-70
2022/07/08 07:26:13;;;;;;;2.40;1.50;;;;;27.40;97555.00;;;;110666;1253;41633;-68
2022/07/08 07:28:42;;;;;;;1.90;1.40;;;;;27.40;97554.00;;;;110320;1255;454928;-68
2022/07/08 07:31:12;;;;;;;3.70;1.60;;;;;27.42;97556.80;;;;110769;1254;41148;-69
2022/07/08 07:33:41;;;;;;;3.10;1.60;;;;;27.18;97551.60;;;;110675;1253;41447;-69
2022/07/08 07:36:10;;;;;;;2.30;1.40;;;;;26.82;97561.60;;;;110531;1253;42136;-69
2022/07/08 07:38:39;;;;;;;1.90;1.40;;;;;26.50;97559.60;;;;110644;1253;41153;-69
2022/07/08 07:41:09;;;;;;;2.70;1.40;;;;;26.54;97560.40;;;;110652;1253;41115;-69
2022/07/08 07:43:38;;;;;;;2.70;1.50;;;;;26.78;97557.00;;;;110550;1253;41997;-69
2022/07/08 07:46:08;;;;;;;4.50;1.70;;;;;26.88;97552.00;;;;110568;1253;41149;-69
2022/07/08 07:48:38;;;;;;;2.70;1.50;;;;;26.86;97555.00;;;;110583;1254;41650;-69
2022/07/08 07:51:07;;;;;;;3.30;1.50;;;;;26.90;97554.80;;;;110489;1254;41270;-66
2022/07/08 07:53:37;;;;;;;2.80;1.40;;;;;27.10;97556.60;;;;110562;1253;41157;-68
2022/07/08 07:56:07;;;;;;;2.00;1.30;;;;;27.38;97561.40;;;;110375;1254;42135;-69
2022/07/08 07:58:38;;;;;;;4.30;1.40;;;;;27.60;97559.80;;;;110749;1254;41257;-69
2022/07/08 08:01:07;;;;;;;5.50;1.90;;;;;27.72;97553.40;;;;110689;1253;41169;-69
2022/07/08 08:03:36;;;;;;;6.60;1.70;;;;;27.90;97551.60;;;;110596;1254;41167;-67
2022/07/08 08:06:06;;;;;;;2.00;1.40;;;;;28.00;97551.40;;;;110617;1254;41907;-68
2022/07/08 08:08:35;;;;;;;2.30;1.40;;;;;28.18;97553.80;;;;110535;1252;42451;-68
2022/07/08 08:11:05;;;;;;;2.30;1.40;;;;;28.20;97556.60;;;;110535;1255;41161;-69
2022/07/08 08:13:34;;;;;;;3.00;1.70;;;;;28.30;97559.80;;;;110696;1254;42342;-68
2022/07/08 08:16:04;;;;;;;3.60;1.50;;;;;28.30;97554.00;;;;110647;1251;41330;-68
2022/07/08 08:18:39;;;;;;;3.30;1.50;;;;;28.30;97556.00;;;;110564;1253;42373;-69
2022/07/08 08:21:09;;;;;;;1.50;1.20;;;;;28.40;97552.40;;;;110667;1253;41264;-70
2022/07/08 08:23:38;;;;;;;3.30;1.50;;;;;28.50;97546.20;;;;110701;1254;41152;-70
2022/07/08 08:26:07;;;;;;;2.90;1.50;;;;;28.60;97552.20;;;;110604;1256;42100;-70
2022/07/08 08:28:36;;;;;;;2.70;1.50;;;;;28.60;97543.20;;;;110686;1253;41898;-69
2022/07/08 08:31:05;;;;;;;2.20;1.40;;;;;28.70;97543.20;;;;110731;1253;41168;-68
2022/07/08 08:33:34;;;;;;;2.70;1.60;;;;;28.90;97542.60;;;;110483;1253;41722;-67
2022/07/08 08:36:04;;;;;;;3.90;1.50;;;;;29.00;97537.60;;;;110561;1254;41258;-68
2022/07/08 08:38:33;;;;;;;2.90;1.60;;;;;29.00;97536.80;;;;110568;1254;41308;-70
2022/07/08 08:41:03;;;;;;;3.80;1.70;;;;;28.80;97528.80;;;;110680;1254;41467;-68
2022/07/08 08:43:32;;;;;;;4.50;1.70;;;;;28.14;97534.20;;;;110450;1255;41134;-68
2022/07/08 08:46:03;;;;;;;4.90;1.80;;;;;27.64;97536.80;;;;110602;1253;41267;-68
2022/07/08 08:48:38;;;;;;;5.30;1.90;;;;;28.00;97531.00;;;;110551;1253;41289;-68
2022/07/08 08:51:09;;;;;;;3.30;1.60;;;;;27.50;97535.00;;;;110630;1254;41137;-68
2022/07/08 08:53:41;;;;;;;;;;;;;27.32;97526.60;;;;110546;1254;41901;-70
2022/07/08 08:56:12;;;;;;;4.80;1.90;;;;;27.66;97526.00;;;;110630;1253;41777;-69
2022/07/08 08:58:52;;;;;;;2.20;1.50;;;;;27.50;97528.80;;;;110501;1254;41169;-69
2022/07/08 09:01:22;;;;;;;2.60;1.50;;;;;27.50;97520.60;;;;110546;1254;41588;-69
2022/07/08 09:03:51;;;;;;;;;;;;;27.70;97521.60;;;;110692;1253;41267;-69
2022/07/08 09:06:20;;;;;;;4.80;1.80;;;;;28.08;97519.00;;;;110791;1253;41644;-70
2022/07/08 09:08:50;;;;;;;6.00;1.40;;;;;28.24;97516.40;;;;110643;1254;41160;-69
2022/07/08 09:11:19;;;;;;;4.00;1.70;;;;;28.70;97513.80;;;;110539;1254;41920;-69
2022/07/08 09:14:17;;;;;;;4.80;1.90;;;;;29.10;97510.40;;;;110620;1254;41162;-69
2022/07/08 09:17:10;;;;;;;2.90;1.50;;;;;29.54;97507.00;;;;110828;1253;41163;-69
2022/07/08 09:19:49;;;;;;;2.50;1.40;;;;;30.12;97504.80;;;;110764;1253;41270;-70
2022/07/08 09:22:23;;;;;;;2.70;1.50;;;;;30.86;97500.60;;;;110797;1253;41276;-69
2022/07/08 09:24:55;;;;;;;3.50;1.60;;;;;31.48;97495.40;;;;110801;1253;41376;-68
2022/07/08 09:27:25;;;;;;;4.00;1.60;;;;;32.24;97491.80;;;;110462;1254;41643;-68
2022/07/08 09:29:59;;;;;;;4.50;1.70;;;;;33.04;97491.40;;;;110547;1254;41267;-68
2022/07/08 09:32:28;;;;;;;2.40;1.50;;;;;33.70;97483.20;;;;110577;1251;41304;-68
2022/07/08 09:34:57;;;;;;;3.30;1.50;;;;;33.40;97483.40;;;;110573;1254;41951;-68
2022/07/08 09:37:31;;;;;;;1.70;1.40;;;;;33.18;97484.80;;;;110539;1254;41252;-69
2022/07/08 09:40:01;;;;;;;2.30;1.30;;;;;32.38;97478.40;;;;110710;1254;41226;-70
2022/07/08 09:42:39;;;;;;;2.80;1.50;;;;;32.58;97475.40;;;;110634;1254;41901;-68
2022/07/08 09:45:09;;;;;;;4.10;1.50;;;;;33.50;97473.00;;;;110577;1253;41966;-70
2022/07/08 09:47:38;;;;;;;3.40;1.50;;;;;34.50;97466.60;;;;110722;1253;41153;-69
2022/07/08 09:50:09;;;;;;;2.50;1.40;;;;;34.96;97463.00;;;;110553;1254;41166;-69
2022/07/08 09:52:38;;;;;;;4.00;1.40;;;;;35.58;97459.20;;;;110560;1254;41600;-68
2022/07/08 09:55:10;;;;;;;3.40;1.40;;;;;36.28;97457.20;;;;110676;1253;41637;-71
2022/07/08 09:57:40;;;;;;;3.60;1.60;;;;;36.26;97456.80;;;;110698;1254;41331;-70
2022/07/08 10:00:10;;;;;;;2.70;1.40;;;;;34.18;97460.60;;;;110659;1254;41186;-68
2022/07/08 10:02:42;;;;;;;2.70;1.30;;;;;33.80;97461.80;;;;110572;1256;42602;-70
2022/07/08 10:05:11;;;;;;;;;;;;;34.16;97457.40;;;;110492;1256;42008;-68
2022/07/08 10:07:40;;;;;;;3.30;1.70;;;;;34.80;97453.60;;;;110479;1253;41582;-69
2022/07/08 10:10:10;;;;;;;3.70;1.40;;;;;34.98;97448.40;;;;110490;1254;41236;-69
2022/07/08 10:12:39;;;;;;;2.30;1.50;;;;;35.20;97447.20;;;;110489;1256;41179;-69
2022/07/08 10:15:10;;;;;;;2.70;1.50;;;;;35.46;97448.00;;;;110477;1254;41173;-70
2022/07/08 10:17:43;;;;;;;3.70;1.70;;;;;35.60;97440.40;;;;110497;1254;41143;-68
2022/07/08 10:20:14;;;;;;;2.20;1.40;;;;;35.56;97445.40;;;;110518;1254;41180;-68
2022/07/08 10:22:48;;;;;;;4.90;1.40;;;;;35.72;97440.60;;;;110515;1254;41166;-68
2022/07/08 10:25:19;;;;;;;2.50;1.60;;;;;36.22;97434.80;;;;110470;1255;41154;-68
2022/07/08 10:27:48;;;;;;;1.70;1.10;;;;;36.08;97426.80;;;;110438;1254;41164;-68
2022/07/08 10:30:21;;;;;;;1.80;1.20;;;;;35.78;97432.40;;;;110359;1256;41150;-69
2022/07/08 10:32:54;;;;;;;1.90;1.10;;;;;35.92;97429.80;;;;110510;1253;41264;-69
2022/07/08 10:35:23;;;;;;;1.20;1.10;;;;;35.88;97428.60;;;;110487;1254;41140;-69
2022/07/08 10:37:59;;;;;;;1.20;1.10;;;;;35.90;97432.40;;;;110535;1252;41622;-70
2022/07/08 10:40:49;;;;;;;2.20;1.40;;;;;36.00;97427.80;;;;110513;1255;42498;-69
2022/07/08 10:43:18;;;;;;;2.20;1.30;;;;;35.92;97432.00;;;;110583;1254;41933;-69
2022/07/08 10:46:04;;;;;;;3.30;1.30;;;;;35.30;97440.80;;;;110550;1254;41267;-68
2022/07/08 10:48:40;;;;;;;1.60;1.10;;;;;35.44;97439.60;;;;110546;1254;41434;-68
2022/07/08 10:51:18;;;;;;;1.70;1.30;;;;;35.74;97436.40;;;;110558;1254;41282;-67
2022/07/08 10:54:06;;;;;;;1.70;1.10;;;;;36.04;97423.80;;;;110624;1254;41269;-69
2022/07/08 10:56:55;;;;;;;6.30;1.40;;;;;36.04;97423.60;;;;110690;1254;41242;-67
2022/07/08 10:59:32;;;;;;;2.20;1.40;;;;;36.54;97421.00;;;;110603;1254;41326;-68
2022/07/08 11:02:12;;;;;;;2.10;1.30;;;;;37.06;97423.40;;;;110546;1254;41312;-69
2022/07/08 11:04:45;;;;;;;2.00;1.40;;;;;36.46;97428.80;;;;110478;1255;41150;-70
2022/07/08 11:07:20;;;;;;;2.60;1.30;;;;;35.70;97431.80;;;;110665;1254;41922;-66
2022/07/08 11:10:03;;;;;;;2.90;1.30;;;;;34.84;97429.00;;;;110552;1255;41734;-69
2022/07/08 11:12:38;;;;;;;3.10;1.30;;;;;35.12;97418.20;;;;110534;1254;41614;-68
2022/07/08 11:15:19;;;;;;;2.50;1.40;;;;;36.14;97410.80;;;;110553;1255;41175;-69
2022/07/08 11:17:50;;;;;;;5.50;1.10;;;;;37.04;97415.80;;;;110649;1254;41161;-69
2022/07/08 11:20:19;;;;;;;1.40;1.10;;;;;37.64;97413.40;;;;110520;1254;41942;-68
2022/07/08 11:22:48;;;;;;;2.40;1.30;;;;;38.52;97410.60;;;;110623;1254;41168;-69
2022/07/08 11:25:18;;;;;;;1.10;0.90;;;;;39.50;97401.40;;;;110518;1255;42024;-68
2022/07/08 11:27:48;;;;;;;2.60;1.20;;;;;39.60;97408.80;;;;110471;1254;42082;-69
2022/07/08 11:30:17;;;;;;;2.10;1.20;;;;;39.20;97394.60;;;;110678;1254;41152;-70
2022/07/08 11:32:50;;;;;;;1.70;1.10;;;;;39.20;97403.00;;;;110642;1254;41176;-69
2022/07/08 11:35:23;;;;;;;1.80;1.20;;;;;36.56;97406.80;;;;110672;1254;41961;-69
2022/07/08 11:37:52;;;;;;;1.50;1.20;;;;;36.06;97401.80;;;;110759;1252;41270;-69
2022/07/08 11:40:22;;;;;;;2.70;1.50;;;;;33.68;97394.40;;;;110579;1254;41202;-70
2022/07/08 11:42:51;;;;;;;;;;;;;35.16;97389.20;;;;110543;1254;41399;-68
2022/07/08 11:45:25;;;;;;;2.60;1.30;;;;;36.26;97387.80;;;;110530;1253;42146;-68
2022/07/08 11:48:05;;;;;;;1.80;1.10;;;;;37.68;97384.40;;;;110481;1256;41140;-69
2022/07/08 11:50:37;;;;;;;1.90;1.10;;;;;38.64;97380.00;;;;110534;1254;41882;-68
2022/07/08 11:53:21;;;;;;;2.30;1.20;;;;;39.46;97373.20;;;;110703;1254;41659;-69
2022/07/08 11:55:50;;;;;;;1.70;1.20;;;;;40.12;97374.40;;;;110580;1254;41139;-69
2022/07/08 11:58:24;;;;;;;3.20;1.10;;;;;40.98;97379.60;;;;110523;1254;41251;-69
2022/07/08 12:00:53;;;;;;;1.30;1.10;;;;;41.16;97386.60;;;;110618;1251;41417;-69
2022/07/08 12:03:22;;;;;;;2.10;1.00;;;;;40.46;97387.20;;;;110598;1254;41131;-70
2022/07/08 12:05:52;;;;;;;2.00;1.10;;;;;39.34;97390.80;;;;110570;1251;41615;-69
2022/07/08 12:08:22;;;;;;;1.10;0.90;;;;;38.34;97401.00;;;;110534;1254;41526;-69
2022/07/08 12:10:51;;;;;;;2.10;1.00;;;;;37.54;97403.80;;;;110685;1253;41646;-69
2022/07/08 12:13:20;;;;;;;4.70;1.20;;;;;36.66;97401.40;;;;110487;1256;41193;-68
2022/07/08 12:15:50;;;;;;;2.40;1.30;;;;;35.98;97405.00;;;;110469;1254;41154;-70
2022/07/08 12:18:24;;;;;;;2.20;1.10;;;;;35.54;97406.00;;;;110477;1254;41236;-68
2022/07/08 12:20:53;;;;;;;1.90;1.20;;;;;35.00;97403.80;;;;110544;1253;41603;-68
2022/07/08 12:23:22;;;;;;;1.90;1.30;;;;;34.40;97406.60;;;;110366;1255;41674;-69
2022/07/08 12:25:53;;;;;;;2.70;1.30;;;;;34.02;97401.20;;;;110503;1254;41258;-66
2022/07/08 12:28:23;;;;;;;2.80;1.30;;;;;33.38;97400.40;;;;110565;1251;42069;-70
2022/07/08 12:30:53;;;;;;;1.80;1.20;;;;;32.90;97400.40;;;;110488;1254;41261;-68
2022/07/08 12:33:27;;;;;;;1.60;1.30;;;;;32.58;97403.40;;;;110271;1254;41265;-69